Hauptseite
METAR-TAF:

METAR-TAF

Flughäfen :

Flughafen Cuneo

Cuneo, Italien

Breite: 44-32-47N, Länge: 007-37-20E, Höhe: 386 m

Beobachtung

Neuester Wetterbericht von vor 10 Stunden und 4 Minuten, um 19:50 UTC
Wind 4 kt aus Südost
Temperatur 2°C
Luftfeuchtigkeit 100%
Luftdruck 1012 hPa
Sichtweite: 7000 m
Durchbrochene Bewölkung in der Höhe von 4000 ft

METAR: LIMZ 161950Z 14004KT 7000 BKN040 02/02 Q1012

Zeit: 06:54 (05:54 UTC)

Prognose

Neuester Wetterbericht von vor 54 Minuten, um 05:00 UTC
Gültige Prognose vom 17 um 06 UTC bis 18 um 06 UTC
Wind 5 kt aus unterschiedlichen Richtungen
Sichtweite: 6000 m
Durchbrochene Bewölkung in der Höhe von 4000 ft
Wahrscheinlichkeit 40% :
Zeitweise
vom 17 um 18 UTC bis 17 um 22 UTC
Sichtweite: 4000 m
Gewitter, Regen

TAF: LIMZ 170500Z 1706/1806 VRB05KT 6000 BKN040 PROB40 TEMPO 1718/1722 4000 TSRA

Wetterbeobachtungen und Prognosen von mehr als 4000 Flughäfen (METAR und TAF Bericht).

Die verfügbaren Stationen werden durch gelbe und rote Markierungen auf der Karte dargestellt.

Führen Sie die Maus auf sie, um den Namen der Station zu sehen.

Darauf klicken, um die Beobachtung von Wetterbeobachtungen und Prognosen zu sehen.

Um die Karte zu ändern : klicken Sie auf den grünen Tasten mit einem schwarzen Kreuz Zum Vergrößern, auf den grünen Button mit einem Gedankenstrich zu verkleinern, oder auf die grünen Pfeile für benachbarte Karten.


METAR-TAF: